sensor_id;sensor_type;location;lat;lon;timestamp;P1;durP1;ratioP1;P2;durP2;ratioP2
22677;SDS011;26259;50.214;18.620;2022-12-18T00:01:19;87.70;;;34.13;;
22677;SDS011;26259;50.214;18.620;2022-12-18T00:03:47;82.90;;;35.23;;
22677;SDS011;26259;50.214;18.620;2022-12-18T00:06:13;90.10;;;35.10;;
22677;SDS011;26259;50.214;18.620;2022-12-18T00:08:42;85.77;;;34.83;;
22677;SDS011;26259;50.214;18.620;2022-12-18T00:11:13;77.83;;;32.07;;
22677;SDS011;26259;50.214;18.620;2022-12-18T00:13:41;75.30;;;31.37;;
22677;SDS011;26259;50.214;18.620;2022-12-18T00:16:08;73.37;;;30.03;;
22677;SDS011;26259;50.214;18.620;2022-12-18T00:18:35;79.10;;;30.53;;
22677;SDS011;26259;50.214;18.620;2022-12-18T00:21:02;83.87;;;32.70;;
22677;SDS011;26259;50.214;18.620;2022-12-18T00:23:30;84.33;;;33.40;;
22677;SDS011;26259;50.214;18.620;2022-12-18T00:26:00;83.20;;;32.87;;
22677;SDS011;26259;50.214;18.620;2022-12-18T00:28:27;76.07;;;31.17;;
22677;SDS011;26259;50.214;18.620;2022-12-18T00:31:02;84.57;;;34.57;;
22677;SDS011;26259;50.214;18.620;2022-12-18T00:33:36;81.63;;;31.67;;
22677;SDS011;26259;50.214;18.620;2022-12-18T00:36:02;87.33;;;36.27;;
22677;SDS011;26259;50.214;18.620;2022-12-18T00:38:35;72.67;;;31.40;;
22677;SDS011;26259;50.214;18.620;2022-12-18T00:41:02;72.53;;;31.80;;
22677;SDS011;26259;50.214;18.620;2022-12-18T00:43:27;72.57;;;30.30;;
22677;SDS011;26259;50.214;18.620;2022-12-18T00:45:53;66.00;;;29.57;;
22677;SDS011;26259;50.214;18.620;2022-12-18T00:48:19;78.03;;;31.97;;
22677;SDS011;26259;50.214;18.620;2022-12-18T00:50:45;75.07;;;31.37;;
22677;SDS011;26259;50.214;18.620;2022-12-18T00:53:12;68.73;;;29.80;;
22677;SDS011;26259;50.214;18.620;2022-12-18T00:55:41;68.37;;;27.53;;
22677;SDS011;26259;50.214;18.620;2022-12-18T00:58:08;69.93;;;28.43;;
22677;SDS011;26259;50.214;18.620;2022-12-18T01:00:34;71.80;;;29.80;;
22677;SDS011;26259;50.214;18.620;2022-12-18T01:03:00;83.10;;;32.43;;
22677;SDS011;26259;50.214;18.620;2022-12-18T01:05:26;71.57;;;29.67;;
22677;SDS011;26259;50.214;18.620;2022-12-18T01:07:52;77.50;;;31.70;;
22677;SDS011;26259;50.214;18.620;2022-12-18T01:10:17;81.07;;;32.93;;
22677;SDS011;26259;50.214;18.620;2022-12-18T01:12:43;75.17;;;30.57;;
22677;SDS011;26259;50.214;18.620;2022-12-18T01:15:10;75.87;;;32.00;;
22677;SDS011;26259;50.214;18.620;2022-12-18T01:17:37;72.17;;;30.60;;
22677;SDS011;26259;50.214;18.620;2022-12-18T01:20:03;78.73;;;31.77;;
22677;SDS011;26259;50.214;18.620;2022-12-18T01:22:30;72.97;;;30.23;;
22677;SDS011;26259;50.214;18.620;2022-12-18T01:24:58;71.10;;;28.73;;
22677;SDS011;26259;50.214;18.620;2022-12-18T01:27:24;66.10;;;30.03;;
22677;SDS011;26259;50.214;18.620;2022-12-18T01:29:49;75.23;;;30.77;;
22677;SDS011;26259;50.214;18.620;2022-12-18T01:32:15;70.63;;;30.00;;
22677;SDS011;26259;50.214;18.620;2022-12-18T01:34:41;73.73;;;29.90;;
22677;SDS011;26259;50.214;18.620;2022-12-18T01:37:06;73.33;;;29.70;;
22677;SDS011;26259;50.214;18.620;2022-12-18T01:39:32;66.60;;;30.70;;
22677;SDS011;26259;50.214;18.620;2022-12-18T01:41:59;80.97;;;29.93;;
22677;SDS011;26259;50.214;18.620;2022-12-18T01:47:14;78.47;;;32.93;;
22677;SDS011;26259;50.214;18.620;2022-12-18T01:50:11;81.70;;;33.97;;
22677;SDS011;26259;50.214;18.620;2022-12-18T01:55:39;72.30;;;32.57;;
22677;SDS011;26259;50.214;18.620;2022-12-18T01:58:11;84.37;;;37.53;;
22677;SDS011;26259;50.214;18.620;2022-12-18T02:00:38;85.20;;;37.83;;
22677;SDS011;26259;50.214;18.620;2022-12-18T02:03:03;93.23;;;39.37;;
22677;SDS011;26259;50.214;18.620;2022-12-18T02:11:10;93.13;;;38.97;;
22677;SDS011;26259;50.214;18.620;2022-12-18T02:14:00;92.50;;;37.67;;
22677;SDS011;26259;50.214;18.620;2022-12-18T02:16:39;84.20;;;35.27;;
22677;SDS011;26259;50.214;18.620;2022-12-18T02:22:29;74.93;;;32.20;;
22677;SDS011;26259;50.214;18.620;2022-12-18T02:25:33;91.37;;;36.43;;
22677;SDS011;26259;50.214;18.620;2022-12-18T02:28:22;91.50;;;36.87;;
22677;SDS011;26259;50.214;18.620;2022-12-18T02:30:51;79.37;;;33.93;;
22677;SDS011;26259;50.214;18.620;2022-12-18T02:33:20;83.40;;;32.97;;
22677;SDS011;26259;50.214;18.620;2022-12-18T02:35:47;86.67;;;35.63;;
22677;SDS011;26259;50.214;18.620;2022-12-18T02:38:14;87.33;;;34.93;;
22677;SDS011;26259;50.214;18.620;2022-12-18T02:40:41;81.47;;;33.70;;
22677;SDS011;26259;50.214;18.620;2022-12-18T02:43:09;90.33;;;36.87;;
22677;SDS011;26259;50.214;18.620;2022-12-18T02:45:45;84.03;;;36.77;;
22677;SDS011;26259;50.214;18.620;2022-12-18T02:48:12;93.53;;;36.00;;
22677;SDS011;26259;50.214;18.620;2022-12-18T02:50:40;90.87;;;37.73;;
22677;SDS011;26259;50.214;18.620;2022-12-18T03:01:15;101.40;;;39.37;;
22677;SDS011;26259;50.214;18.620;2022-12-18T03:03:44;87.13;;;37.90;;
22677;SDS011;26259;50.214;18.620;2022-12-18T03:06:29;86.83;;;35.57;;
22677;SDS011;26259;50.214;18.620;2022-12-18T03:08:59;88.80;;;35.13;;
22677;SDS011;26259;50.214;18.620;2022-12-18T03:11:32;103.53;;;40.37;;
22677;SDS011;26259;50.214;18.620;2022-12-18T03:14:20;89.13;;;37.57;;
22677;SDS011;26259;50.214;18.620;2022-12-18T03:16:48;98.57;;;39.53;;
22677;SDS011;26259;50.214;18.620;2022-12-18T03:19:18;99.43;;;38.93;;
22677;SDS011;26259;50.214;18.620;2022-12-18T03:21:47;85.60;;;34.47;;
22677;SDS011;26259;50.214;18.620;2022-12-18T03:24:17;94.13;;;37.43;;
22677;SDS011;26259;50.214;18.620;2022-12-18T03:26:46;102.30;;;38.67;;
22677;SDS011;26259;50.214;18.620;2022-12-18T03:29:21;90.43;;;36.70;;
22677;SDS011;26259;50.214;18.620;2022-12-18T03:31:56;90.00;;;35.63;;
22677;SDS011;26259;50.214;18.620;2022-12-18T03:34:29;91.80;;;34.93;;
22677;SDS011;26259;50.214;18.620;2022-12-18T03:36:57;99.63;;;38.07;;
22677;SDS011;26259;50.214;18.620;2022-12-18T03:39:23;96.37;;;38.17;;
22677;SDS011;26259;50.214;18.620;2022-12-18T03:45:11;109.23;;;40.47;;
22677;SDS011;26259;50.214;18.620;2022-12-18T03:50:19;107.43;;;41.90;;
22677;SDS011;26259;50.214;18.620;2022-12-18T03:52:58;104.53;;;40.07;;
22677;SDS011;26259;50.214;18.620;2022-12-18T03:55:42;100.70;;;38.50;;
22677;SDS011;26259;50.214;18.620;2022-12-18T03:58:10;101.30;;;38.17;;
22677;SDS011;26259;50.214;18.620;2022-12-18T04:00:40;102.27;;;38.40;;
22677;SDS011;26259;50.214;18.620;2022-12-18T04:03:07;107.37;;;38.13;;
22677;SDS011;26259;50.214;18.620;2022-12-18T04:05:34;111.27;;;39.33;;
22677;SDS011;26259;50.214;18.620;2022-12-18T04:08:02;105.67;;;37.93;;
22677;SDS011;26259;50.214;18.620;2022-12-18T04:10:28;97.07;;;36.57;;
22677;SDS011;26259;50.214;18.620;2022-12-18T04:12:57;101.07;;;38.50;;
22677;SDS011;26259;50.214;18.620;2022-12-18T04:15:23;105.10;;;40.37;;
22677;SDS011;26259;50.214;18.620;2022-12-18T04:17:49;104.80;;;38.70;;
22677;SDS011;26259;50.214;18.620;2022-12-18T04:20:15;105.23;;;38.67;;
22677;SDS011;26259;50.214;18.620;2022-12-18T04:22:41;105.40;;;36.73;;
22677;SDS011;26259;50.214;18.620;2022-12-18T04:25:07;111.50;;;39.63;;
22677;SDS011;26259;50.214;18.620;2022-12-18T04:27:36;107.67;;;42.53;;
22677;SDS011;26259;50.214;18.620;2022-12-18T04:30:02;103.70;;;38.67;;
22677;SDS011;26259;50.214;18.620;2022-12-18T04:32:28;103.93;;;38.50;;
22677;SDS011;26259;50.214;18.620;2022-12-18T04:34:54;99.37;;;36.63;;
22677;SDS011;26259;50.214;18.620;2022-12-18T04:37:19;97.80;;;34.93;;
22677;SDS011;26259;50.214;18.620;2022-12-18T04:39:45;94.07;;;36.50;;
22677;SDS011;26259;50.214;18.620;2022-12-18T04:42:11;121.13;;;39.83;;
22677;SDS011;26259;50.214;18.620;2022-12-18T04:44:37;103.40;;;37.07;;
22677;SDS011;26259;50.214;18.620;2022-12-18T04:47:03;91.07;;;33.70;;
22677;SDS011;26259;50.214;18.620;2022-12-18T04:49:28;90.20;;;35.27;;
22677;SDS011;26259;50.214;18.620;2022-12-18T04:51:54;88.87;;;33.57;;
22677;SDS011;26259;50.214;18.620;2022-12-18T04:54:20;79.90;;;32.77;;
22677;SDS011;26259;50.214;18.620;2022-12-18T04:56:45;93.73;;;34.03;;
22677;SDS011;26259;50.214;18.620;2022-12-18T04:59:11;94.27;;;36.63;;
22677;SDS011;26259;50.214;18.620;2022-12-18T05:01:37;85.60;;;33.47;;
22677;SDS011;26259;50.214;18.620;2022-12-18T05:04:02;91.90;;;33.47;;
22677;SDS011;26259;50.214;18.620;2022-12-18T05:06:28;73.47;;;30.37;;
22677;SDS011;26259;50.214;18.620;2022-12-18T05:08:54;88.50;;;34.30;;
22677;SDS011;26259;50.214;18.620;2022-12-18T05:11:20;83.97;;;34.73;;
22677;SDS011;26259;50.214;18.620;2022-12-18T05:13:45;91.63;;;36.43;;
22677;SDS011;26259;50.214;18.620;2022-12-18T05:16:11;91.47;;;37.40;;
22677;SDS011;26259;50.214;18.620;2022-12-18T05:18:38;85.90;;;34.30;;
22677;SDS011;26259;50.214;18.620;2022-12-18T05:21:03;89.87;;;34.10;;
22677;SDS011;26259;50.214;18.620;2022-12-18T05:23:29;88.13;;;33.47;;
22677;SDS011;26259;50.214;18.620;2022-12-18T05:25:55;91.83;;;34.10;;
22677;SDS011;26259;50.214;18.620;2022-12-18T05:28:26;89.70;;;34.10;;
22677;SDS011;26259;50.214;18.620;2022-12-18T05:30:54;90.27;;;34.20;;
22677;SDS011;26259;50.214;18.620;2022-12-18T05:33:22;97.67;;;35.40;;
22677;SDS011;26259;50.214;18.620;2022-12-18T05:35:52;82.17;;;31.80;;
22677;SDS011;26259;50.214;18.620;2022-12-18T05:38:19;88.33;;;34.03;;
22677;SDS011;26259;50.214;18.620;2022-12-18T05:40:46;82.57;;;32.00;;
22677;SDS011;26259;50.214;18.620;2022-12-18T05:43:13;87.70;;;34.37;;
22677;SDS011;26259;50.214;18.620;2022-12-18T05:45:39;89.03;;;35.07;;
22677;SDS011;26259;50.214;18.620;2022-12-18T05:48:05;87.53;;;35.17;;
22677;SDS011;26259;50.214;18.620;2022-12-18T05:50:38;90.60;;;34.50;;
22677;SDS011;26259;50.214;18.620;2022-12-18T05:53:05;95.80;;;36.80;;
22677;SDS011;26259;50.214;18.620;2022-12-18T05:55:34;103.53;;;38.03;;
22677;SDS011;26259;50.214;18.620;2022-12-18T05:58:01;102.73;;;38.03;;
22677;SDS011;26259;50.214;18.620;2022-12-18T06:00:27;99.23;;;39.30;;
22677;SDS011;26259;50.214;18.620;2022-12-18T06:02:53;100.43;;;38.80;;
22677;SDS011;26259;50.214;18.620;2022-12-18T06:05:18;103.07;;;41.20;;
22677;SDS011;26259;50.214;18.620;2022-12-18T06:07:44;100.87;;;40.47;;
22677;SDS011;26259;50.214;18.620;2022-12-18T06:10:10;124.00;;;53.07;;
22677;SDS011;26259;50.214;18.620;2022-12-18T06:12:36;118.80;;;49.10;;
22677;SDS011;26259;50.214;18.620;2022-12-18T06:15:02;203.17;;;94.53;;
22677;SDS011;26259;50.214;18.620;2022-12-18T06:17:32;144.37;;;62.43;;
22677;SDS011;26259;50.214;18.620;2022-12-18T06:19:58;121.93;;;48.30;;
22677;SDS011;26259;50.214;18.620;2022-12-18T06:22:24;185.53;;;62.13;;
22677;SDS011;26259;50.214;18.620;2022-12-18T06:24:50;277.17;;;82.60;;
22677;SDS011;26259;50.214;18.620;2022-12-18T06:27:16;173.97;;;57.20;;
22677;SDS011;26259;50.214;18.620;2022-12-18T06:29:41;187.37;;;61.80;;
22677;SDS011;26259;50.214;18.620;2022-12-18T06:32:07;147.20;;;49.80;;
22677;SDS011;26259;50.214;18.620;2022-12-18T06:34:33;111.17;;;40.50;;
22677;SDS011;26259;50.214;18.620;2022-12-18T06:36:58;101.17;;;38.13;;
22677;SDS011;26259;50.214;18.620;2022-12-18T06:39:24;106.50;;;38.53;;
22677;SDS011;26259;50.214;18.620;2022-12-18T06:41:52;101.43;;;36.77;;
22677;SDS011;26259;50.214;18.620;2022-12-18T06:44:17;106.77;;;37.63;;
22677;SDS011;26259;50.214;18.620;2022-12-18T06:46:43;103.40;;;37.17;;
22677;SDS011;26259;50.214;18.620;2022-12-18T06:49:09;100.63;;;37.70;;
22677;SDS011;26259;50.214;18.620;2022-12-18T06:51:34;102.50;;;36.00;;
22677;SDS011;26259;50.214;18.620;2022-12-18T06:54:00;109.97;;;40.70;;
22677;SDS011;26259;50.214;18.620;2022-12-18T06:56:26;122.13;;;42.77;;
22677;SDS011;26259;50.214;18.620;2022-12-18T06:58:53;139.27;;;47.93;;
22677;SDS011;26259;50.214;18.620;2022-12-18T07:01:19;178.07;;;61.60;;
22677;SDS011;26259;50.214;18.620;2022-12-18T07:03:45;149.17;;;53.83;;
22677;SDS011;26259;50.214;18.620;2022-12-18T07:06:15;140.00;;;50.37;;
22677;SDS011;26259;50.214;18.620;2022-12-18T07:08:42;127.33;;;44.93;;
22677;SDS011;26259;50.214;18.620;2022-12-18T07:11:08;131.70;;;44.93;;
22677;SDS011;26259;50.214;18.620;2022-12-18T07:13:34;133.60;;;47.47;;
22677;SDS011;26259;50.214;18.620;2022-12-18T07:16:03;134.43;;;48.53;;
22677;SDS011;26259;50.214;18.620;2022-12-18T07:18:33;125.13;;;45.80;;
22677;SDS011;26259;50.214;18.620;2022-12-18T07:21:02;111.50;;;43.13;;
22677;SDS011;26259;50.214;18.620;2022-12-18T07:23:29;108.03;;;41.30;;
22677;SDS011;26259;50.214;18.620;2022-12-18T07:26:00;131.33;;;50.13;;
22677;SDS011;26259;50.214;18.620;2022-12-18T07:28:34;119.60;;;47.50;;
22677;SDS011;26259;50.214;18.620;2022-12-18T07:31:06;120.57;;;45.67;;
22677;SDS011;26259;50.214;18.620;2022-12-18T07:33:37;108.13;;;42.00;;
22677;SDS011;26259;50.214;18.620;2022-12-18T07:36:03;106.93;;;42.17;;
22677;SDS011;26259;50.214;18.620;2022-12-18T07:38:30;108.43;;;44.60;;
22677;SDS011;26259;50.214;18.620;2022-12-18T07:41:00;121.83;;;46.60;;
22677;SDS011;26259;50.214;18.620;2022-12-18T07:43:30;117.33;;;49.27;;
22677;SDS011;26259;50.214;18.620;2022-12-18T07:45:56;133.70;;;50.37;;
22677;SDS011;26259;50.214;18.620;2022-12-18T07:48:21;154.70;;;58.33;;
22677;SDS011;26259;50.214;18.620;2022-12-18T07:50:47;142.00;;;54.63;;
22677;SDS011;26259;50.214;18.620;2022-12-18T07:53:13;122.77;;;50.80;;
22677;SDS011;26259;50.214;18.620;2022-12-18T07:55:39;122.27;;;49.10;;
22677;SDS011;26259;50.214;18.620;2022-12-18T07:58:06;137.13;;;53.63;;
22677;SDS011;26259;50.214;18.620;2022-12-18T08:00:32;104.63;;;42.77;;
22677;SDS011;26259;50.214;18.620;2022-12-18T08:02:59;91.43;;;40.43;;
22677;SDS011;26259;50.214;18.620;2022-12-18T08:05:24;88.07;;;37.13;;
22677;SDS011;26259;50.214;18.620;2022-12-18T08:07:50;81.90;;;37.60;;
22677;SDS011;26259;50.214;18.620;2022-12-18T08:10:16;100.53;;;40.07;;
22677;SDS011;26259;50.214;18.620;2022-12-18T08:12:42;100.40;;;42.90;;
22677;SDS011;26259;50.214;18.620;2022-12-18T08:15:07;90.43;;;39.80;;
22677;SDS011;26259;50.214;18.620;2022-12-18T08:17:33;105.70;;;42.03;;
22677;SDS011;26259;50.214;18.620;2022-12-18T08:19:59;106.23;;;43.97;;
22677;SDS011;26259;50.214;18.620;2022-12-18T08:22:25;88.73;;;36.77;;
22677;SDS011;26259;50.214;18.620;2022-12-18T08:24:50;90.47;;;35.60;;
22677;SDS011;26259;50.214;18.620;2022-12-18T08:27:16;93.73;;;38.70;;
22677;SDS011;26259;50.214;18.620;2022-12-18T08:29:41;96.43;;;39.27;;
22677;SDS011;26259;50.214;18.620;2022-12-18T08:32:07;92.07;;;38.50;;
22677;SDS011;26259;50.214;18.620;2022-12-18T08:34:33;83.80;;;36.30;;
22677;SDS011;26259;50.214;18.620;2022-12-18T08:36:59;90.33;;;40.70;;
22677;SDS011;26259;50.214;18.620;2022-12-18T08:39:24;94.67;;;40.40;;
22677;SDS011;26259;50.214;18.620;2022-12-18T08:41:50;93.10;;;37.87;;
22677;SDS011;26259;50.214;18.620;2022-12-18T08:44:34;98.33;;;42.10;;
22677;SDS011;26259;50.214;18.620;2022-12-18T08:47:03;86.73;;;39.43;;
22677;SDS011;26259;50.214;18.620;2022-12-18T08:49:29;77.93;;;34.07;;
22677;SDS011;26259;50.214;18.620;2022-12-18T08:51:55;87.63;;;36.43;;
22677;SDS011;26259;50.214;18.620;2022-12-18T08:54:24;91.93;;;38.83;;
22677;SDS011;26259;50.214;18.620;2022-12-18T08:56:50;102.27;;;42.43;;
22677;SDS011;26259;50.214;18.620;2022-12-18T08:59:17;119.20;;;46.50;;
22677;SDS011;26259;50.214;18.620;2022-12-18T09:01:43;118.73;;;47.27;;
22677;SDS011;26259;50.214;18.620;2022-12-18T09:04:09;120.87;;;47.50;;
22677;SDS011;26259;50.214;18.620;2022-12-18T09:06:35;112.20;;;45.00;;
22677;SDS011;26259;50.214;18.620;2022-12-18T09:09:01;120.83;;;47.17;;
22677;SDS011;26259;50.214;18.620;2022-12-18T09:11:28;108.93;;;44.07;;
22677;SDS011;26259;50.214;18.620;2022-12-18T09:13:54;133.03;;;54.07;;
22677;SDS011;26259;50.214;18.620;2022-12-18T09:16:20;111.87;;;45.97;;
22677;SDS011;26259;50.214;18.620;2022-12-18T09:18:47;113.80;;;45.23;;
22677;SDS011;26259;50.214;18.620;2022-12-18T09:21:14;110.60;;;42.17;;
22677;SDS011;26259;50.214;18.620;2022-12-18T09:23:41;107.17;;;41.10;;
22677;SDS011;26259;50.214;18.620;2022-12-18T09:26:08;110.83;;;42.97;;
22677;SDS011;26259;50.214;18.620;2022-12-18T09:28:33;101.87;;;41.43;;
22677;SDS011;26259;50.214;18.620;2022-12-18T09:31:02;92.40;;;39.33;;
22677;SDS011;26259;50.214;18.620;2022-12-18T09:33:31;97.80;;;39.53;;
22677;SDS011;26259;50.214;18.620;2022-12-18T09:35:57;97.27;;;38.90;;
22677;SDS011;26259;50.214;18.620;2022-12-18T09:38:22;95.77;;;37.97;;
22677;SDS011;26259;50.214;18.620;2022-12-18T09:40:51;94.63;;;38.80;;
22677;SDS011;26259;50.214;18.620;2022-12-18T09:43:20;91.40;;;36.43;;
22677;SDS011;26259;50.214;18.620;2022-12-18T09:46:17;82.00;;;34.00;;
22677;SDS011;26259;50.214;18.620;2022-12-18T09:48:50;81.60;;;33.10;;
22677;SDS011;26259;50.214;18.620;2022-12-18T09:51:20;88.47;;;37.97;;
22677;SDS011;26259;50.214;18.620;2022-12-18T09:53:52;74.00;;;32.30;;
22677;SDS011;26259;50.214;18.620;2022-12-18T09:56:23;83.13;;;35.33;;
22677;SDS011;26259;50.214;18.620;2022-12-18T09:58:57;82.97;;;33.93;;
22677;SDS011;26259;50.214;18.620;2022-12-18T10:01:24;66.00;;;28.93;;
22677;SDS011;26259;50.214;18.620;2022-12-18T10:03:52;70.73;;;29.10;;
22677;SDS011;26259;50.214;18.620;2022-12-18T10:08:55;69.37;;;31.47;;
22677;SDS011;26259;50.214;18.620;2022-12-18T10:11:48;69.73;;;28.87;;
22677;SDS011;26259;50.214;18.620;2022-12-18T10:15:07;72.97;;;31.47;;
22677;SDS011;26259;50.214;18.620;2022-12-18T10:17:45;78.63;;;33.43;;
22677;SDS011;26259;50.214;18.620;2022-12-18T10:20:51;70.77;;;33.73;;
22677;SDS011;26259;50.214;18.620;2022-12-18T10:26:22;72.67;;;30.47;;
22677;SDS011;26259;50.214;18.620;2022-12-18T10:28:48;73.57;;;31.70;;
22677;SDS011;26259;50.214;18.620;2022-12-18T10:31:16;87.87;;;37.93;;
22677;SDS011;26259;50.214;18.620;2022-12-18T10:33:43;75.87;;;34.83;;
22677;SDS011;26259;50.214;18.620;2022-12-18T10:36:09;74.93;;;32.93;;
22677;SDS011;26259;50.214;18.620;2022-12-18T10:38:35;85.07;;;37.63;;
22677;SDS011;26259;50.214;18.620;2022-12-18T10:41:02;81.73;;;35.57;;
22677;SDS011;26259;50.214;18.620;2022-12-18T10:45:59;56.43;;;25.23;;
22677;SDS011;26259;50.214;18.620;2022-12-18T10:48:47;56.87;;;24.73;;
22677;SDS011;26259;50.214;18.620;2022-12-18T10:51:25;59.60;;;27.23;;
22677;SDS011;26259;50.214;18.620;2022-12-18T10:54:03;56.20;;;26.07;;
22677;SDS011;26259;50.214;18.620;2022-12-18T10:56:32;63.90;;;29.13;;
22677;SDS011;26259;50.214;18.620;2022-12-18T10:59:01;63.37;;;28.27;;
22677;SDS011;26259;50.214;18.620;2022-12-18T11:04:33;57.30;;;25.87;;
22677;SDS011;26259;50.214;18.620;2022-12-18T11:07:00;65.23;;;28.93;;
22677;SDS011;26259;50.214;18.620;2022-12-18T11:09:34;65.53;;;28.33;;
22677;SDS011;26259;50.214;18.620;2022-12-18T11:12:08;64.30;;;27.63;;
22677;SDS011;26259;50.214;18.620;2022-12-18T11:14:43;63.13;;;29.47;;
22677;SDS011;26259;50.214;18.620;2022-12-18T11:17:19;63.87;;;27.80;;
22677;SDS011;26259;50.214;18.620;2022-12-18T11:19:51;65.97;;;29.37;;
22677;SDS011;26259;50.214;18.620;2022-12-18T11:22:25;82.97;;;37.33;;
22677;SDS011;26259;50.214;18.620;2022-12-18T11:24:57;70.30;;;31.30;;
22677;SDS011;26259;50.214;18.620;2022-12-18T11:27:27;62.73;;;28.93;;
22677;SDS011;26259;50.214;18.620;2022-12-18T11:30:07;63.07;;;27.97;;
22677;SDS011;26259;50.214;18.620;2022-12-18T11:32:45;69.90;;;30.53;;
22677;SDS011;26259;50.214;18.620;2022-12-18T11:35:21;66.67;;;30.60;;
22677;SDS011;26259;50.214;18.620;2022-12-18T11:38:22;76.63;;;32.00;;
22677;SDS011;26259;50.214;18.620;2022-12-18T11:43:35;72.60;;;32.17;;
22677;SDS011;26259;50.214;18.620;2022-12-18T11:46:25;60.80;;;28.37;;
22677;SDS011;26259;50.214;18.620;2022-12-18T11:49:01;76.17;;;33.40;;
22677;SDS011;26259;50.214;18.620;2022-12-18T11:51:34;74.70;;;32.87;;
22677;SDS011;26259;50.214;18.620;2022-12-18T11:54:13;76.67;;;31.90;;
22677;SDS011;26259;50.214;18.620;2022-12-18T11:56:46;73.50;;;32.00;;
22677;SDS011;26259;50.214;18.620;2022-12-18T11:59:21;72.70;;;32.10;;
22677;SDS011;26259;50.214;18.620;2022-12-18T12:02:29;85.33;;;38.40;;
22677;SDS011;26259;50.214;18.620;2022-12-18T12:05:25;81.10;;;36.07;;
22677;SDS011;26259;50.214;18.620;2022-12-18T12:36:42;89.00;;;37.07;;
22677;SDS011;26259;50.214;18.620;2022-12-18T12:39:37;78.00;;;32.80;;
22677;SDS011;26259;50.214;18.620;2022-12-18T12:42:05;89.63;;;36.70;;
22677;SDS011;26259;50.214;18.620;2022-12-18T12:44:59;87.57;;;38.53;;
22677;SDS011;26259;50.214;18.620;2022-12-18T12:47:30;90.33;;;37.70;;
22677;SDS011;26259;50.214;18.620;2022-12-18T12:49:59;105.13;;;48.37;;
22677;SDS011;26259;50.214;18.620;2022-12-18T12:52:35;77.27;;;34.80;;
22677;SDS011;26259;50.214;18.620;2022-12-18T12:55:05;76.67;;;35.33;;
22677;SDS011;26259;50.214;18.620;2022-12-18T12:57:38;75.03;;;32.27;;
22677;SDS011;26259;50.214;18.620;2022-12-18T13:00:10;76.53;;;34.13;;
22677;SDS011;26259;50.214;18.620;2022-12-18T13:05:38;78.00;;;32.13;;
22677;SDS011;26259;50.214;18.620;2022-12-18T13:08:34;79.17;;;34.73;;
22677;SDS011;26259;50.214;18.620;2022-12-18T13:11:29;76.53;;;32.60;;
22677;SDS011;26259;50.214;18.620;2022-12-18T13:14:47;80.60;;;33.57;;
22677;SDS011;26259;50.214;18.620;2022-12-18T13:19:50;80.63;;;33.77;;
22677;SDS011;26259;50.214;18.620;2022-12-18T13:38:21;73.10;;;34.63;;
22677;SDS011;26259;50.214;18.620;2022-12-18T13:43:24;82.73;;;36.57;;
22677;SDS011;26259;50.214;18.620;2022-12-18T13:48:52;76.53;;;33.73;;
22677;SDS011;26259;50.214;18.620;2022-12-18T13:51:21;79.43;;;34.13;;
22677;SDS011;26259;50.214;18.620;2022-12-18T13:53:49;71.87;;;32.53;;
22677;SDS011;26259;50.214;18.620;2022-12-18T13:56:24;82.80;;;33.27;;
22677;SDS011;26259;50.214;18.620;2022-12-18T14:01:45;84.80;;;38.17;;
22677;SDS011;26259;50.214;18.620;2022-12-18T14:04:23;89.20;;;39.00;;
22677;SDS011;26259;50.214;18.620;2022-12-18T14:07:24;84.43;;;38.80;;
22677;SDS011;26259;50.214;18.620;2022-12-18T14:09:54;87.00;;;37.90;;
22677;SDS011;26259;50.214;18.620;2022-12-18T14:12:28;86.23;;;38.10;;
22677;SDS011;26259;50.214;18.620;2022-12-18T14:17:57;88.43;;;36.40;;
22677;SDS011;26259;50.214;18.620;2022-12-18T14:20:24;91.73;;;40.07;;
22677;SDS011;26259;50.214;18.620;2022-12-18T14:22:51;87.53;;;36.70;;
22677;SDS011;26259;50.214;18.620;2022-12-18T14:25:24;81.03;;;36.47;;
22677;SDS011;26259;50.214;18.620;2022-12-18T14:30:36;95.97;;;37.57;;
22677;SDS011;26259;50.214;18.620;2022-12-18T14:35:34;85.23;;;35.83;;
22677;SDS011;26259;50.214;18.620;2022-12-18T14:38:25;81.73;;;32.83;;
22677;SDS011;26259;50.214;18.620;2022-12-18T14:41:02;83.23;;;33.10;;
22677;SDS011;26259;50.214;18.620;2022-12-18T14:43:29;80.63;;;34.10;;
22677;SDS011;26259;50.214;18.620;2022-12-18T14:45:57;84.90;;;34.27;;
22677;SDS011;26259;50.214;18.620;2022-12-18T14:51:02;90.70;;;37.23;;
22677;SDS011;26259;50.214;18.620;2022-12-18T14:56:10;79.50;;;33.27;;
22677;SDS011;26259;50.214;18.620;2022-12-18T14:58:45;90.77;;;35.20;;
22677;SDS011;26259;50.214;18.620;2022-12-18T15:01:46;84.67;;;36.03;;
22677;SDS011;26259;50.214;18.620;2022-12-18T15:04:34;87.83;;;34.23;;
22677;SDS011;26259;50.214;18.620;2022-12-18T15:07:22;93.47;;;35.03;;
22677;SDS011;26259;50.214;18.620;2022-12-18T15:10:09;97.00;;;37.50;;
22677;SDS011;26259;50.214;18.620;2022-12-18T15:12:39;93.93;;;37.23;;
22677;SDS011;26259;50.214;18.620;2022-12-18T15:18:19;84.03;;;34.67;;
22677;SDS011;26259;50.214;18.620;2022-12-18T15:20:49;87.67;;;34.30;;
22677;SDS011;26259;50.214;18.620;2022-12-18T15:26:07;79.03;;;32.47;;
22677;SDS011;26259;50.214;18.620;2022-12-18T15:28:48;88.97;;;34.33;;
22677;SDS011;26259;50.214;18.620;2022-12-18T15:31:23;91.47;;;34.73;;
22677;SDS011;26259;50.214;18.620;2022-12-18T15:36:30;87.40;;;35.07;;
22677;SDS011;26259;50.214;18.620;2022-12-18T15:38:56;88.53;;;36.20;;
22677;SDS011;26259;50.214;18.620;2022-12-18T15:41:22;105.67;;;38.70;;
22677;SDS011;26259;50.214;18.620;2022-12-18T15:43:50;108.50;;;41.30;;
22677;SDS011;26259;50.214;18.620;2022-12-18T15:46:21;105.20;;;41.37;;
22677;SDS011;26259;50.214;18.620;2022-12-18T15:48:49;98.50;;;40.23;;
22677;SDS011;26259;50.214;18.620;2022-12-18T15:51:29;107.53;;;40.90;;
22677;SDS011;26259;50.214;18.620;2022-12-18T15:53:58;95.40;;;37.17;;
22677;SDS011;26259;50.214;18.620;2022-12-18T15:56:25;106.57;;;40.13;;
22677;SDS011;26259;50.214;18.620;2022-12-18T15:59:10;99.27;;;37.87;;
22677;SDS011;26259;50.214;18.620;2022-12-18T16:01:37;93.27;;;37.40;;
22677;SDS011;26259;50.214;18.620;2022-12-18T16:04:03;104.40;;;41.27;;
22677;SDS011;26259;50.214;18.620;2022-12-18T16:06:29;105.23;;;39.27;;
22677;SDS011;26259;50.214;18.620;2022-12-18T16:08:54;103.13;;;37.67;;
22677;SDS011;26259;50.214;18.620;2022-12-18T16:11:24;115.73;;;42.27;;
22677;SDS011;26259;50.214;18.620;2022-12-18T16:14:24;112.30;;;40.43;;
22677;SDS011;26259;50.214;18.620;2022-12-18T16:16:53;143.53;;;48.00;;
22677;SDS011;26259;50.214;18.620;2022-12-18T16:19:23;127.03;;;46.87;;
22677;SDS011;26259;50.214;18.620;2022-12-18T16:21:50;135.00;;;46.63;;
22677;SDS011;26259;50.214;18.620;2022-12-18T16:24:18;131.97;;;48.23;;
22677;SDS011;26259;50.214;18.620;2022-12-18T16:26:46;137.87;;;49.70;;
22677;SDS011;26259;50.214;18.620;2022-12-18T16:29:13;129.00;;;49.23;;